sensor_id;sensor_type;location;lat;lon;timestamp;temperature;humidity
1800;DHT22;919;48.274;12.292;2023-11-21T00:00:22;4.40;99.90
1800;DHT22;919;48.274;12.292;2023-11-21T00:02:49;4.40;99.90
1800;DHT22;919;48.274;12.292;2023-11-21T00:05:16;4.50;99.90
1800;DHT22;919;48.274;12.292;2023-11-21T00:07:43;4.60;99.90
1800;DHT22;919;48.274;12.292;2023-11-21T00:10:11;4.60;99.90
1800;DHT22;919;48.274;12.292;2023-11-21T00:12:39;4.50;99.90
1800;DHT22;919;48.274;12.292;2023-11-21T00:15:08;4.50;99.90
1800;DHT22;919;48.274;12.292;2023-11-21T00:17:37;4.50;99.90
1800;DHT22;919;48.274;12.292;2023-11-21T00:20:06;4.60;99.90
1800;DHT22;919;48.274;12.292;2023-11-21T00:22:33;4.60;99.90
1800;DHT22;919;48.274;12.292;2023-11-21T00:25:00;4.70;99.90
1800;DHT22;919;48.274;12.292;2023-11-21T00:27:26;4.60;99.90
1800;DHT22;919;48.274;12.292;2023-11-21T00:29:53;4.70;99.90
1800;DHT22;919;48.274;12.292;2023-11-21T00:32:20;4.70;99.90
1800;DHT22;919;48.274;12.292;2023-11-21T00:34:48;4.80;99.90
1800;DHT22;919;48.274;12.292;2023-11-21T00:37:14;4.80;99.90
1800;DHT22;919;48.274;12.292;2023-11-21T00:39:41;4.80;99.90
1800;DHT22;919;48.274;12.292;2023-11-21T00:42:08;4.90;99.90
1800;DHT22;919;48.274;12.292;2023-11-21T00:44:37;4.90;99.90
1800;DHT22;919;48.274;12.292;2023-11-21T00:47:04;4.90;99.90
1800;DHT22;919;48.274;12.292;2023-11-21T00:49:31;4.90;99.90
1800;DHT22;919;48.274;12.292;2023-11-21T00:51:59;4.90;99.90
1800;DHT22;919;48.274;12.292;2023-11-21T00:54:27;4.90;99.90
1800;DHT22;919;48.274;12.292;2023-11-21T00:56:53;4.90;99.90
1800;DHT22;919;48.274;12.292;2023-11-21T00:59:20;4.90;99.90
1800;DHT22;919;48.274;12.292;2023-11-21T01:01:48;4.90;99.90
1800;DHT22;919;48.274;12.292;2023-11-21T01:04:15;4.90;99.90
1800;DHT22;919;48.274;12.292;2023-11-21T01:06:41;4.90;99.90
1800;DHT22;919;48.274;12.292;2023-11-21T01:09:09;4.80;99.90
1800;DHT22;919;48.274;12.292;2023-11-21T01:11:36;4.80;99.90
1800;DHT22;919;48.274;12.292;2023-11-21T01:14:04;4.90;99.90
1800;DHT22;919;48.274;12.292;2023-11-21T01:16:31;4.90;99.90
1800;DHT22;919;48.274;12.292;2023-11-21T01:18:58;4.90;99.90
1800;DHT22;919;48.274;12.292;2023-11-21T01:21:25;5.00;99.90
1800;DHT22;919;48.274;12.292;2023-11-21T01:23:53;4.90;99.90
1800;DHT22;919;48.274;12.292;2023-11-21T01:26:22;4.90;99.90
1800;DHT22;919;48.274;12.292;2023-11-21T01:28:48;4.90;99.90
1800;DHT22;919;48.274;12.292;2023-11-21T01:31:15;4.80;99.90
1800;DHT22;919;48.274;12.292;2023-11-21T01:33:42;4.80;99.90
1800;DHT22;919;48.274;12.292;2023-11-21T01:36:10;5.00;99.90
1800;DHT22;919;48.274;12.292;2023-11-21T01:38:36;5.00;99.90
1800;DHT22;919;48.274;12.292;2023-11-21T01:41:04;5.00;99.90
1800;DHT22;919;48.274;12.292;2023-11-21T01:43:33;5.10;99.90
1800;DHT22;919;48.274;12.292;2023-11-21T01:45:59;5.10;99.90
1800;DHT22;919;48.274;12.292;2023-11-21T01:48:27;5.10;99.90
1800;DHT22;919;48.274;12.292;2023-11-21T01:50:55;5.20;99.90
1800;DHT22;919;48.274;12.292;2023-11-21T01:53:23;5.20;99.90
1800;DHT22;919;48.274;12.292;2023-11-21T01:55:51;5.20;99.90
1800;DHT22;919;48.274;12.292;2023-11-21T01:58:19;5.20;99.90
1800;DHT22;919;48.274;12.292;2023-11-21T02:00:48;5.30;99.90
1800;DHT22;919;48.274;12.292;2023-11-21T02:03:16;5.30;99.90
1800;DHT22;919;48.274;12.292;2023-11-21T02:05:43;5.30;99.90
1800;DHT22;919;48.274;12.292;2023-11-21T02:08:09;5.20;99.90
1800;DHT22;919;48.274;12.292;2023-11-21T02:10:36;5.30;99.90
1800;DHT22;919;48.274;12.292;2023-11-21T02:13:03;5.30;99.90
1800;DHT22;919;48.274;12.292;2023-11-21T02:15:31;5.30;99.90
1800;DHT22;919;48.274;12.292;2023-11-21T02:18:00;5.40;99.90
1800;DHT22;919;48.274;12.292;2023-11-21T02:20:28;5.40;99.90
1800;DHT22;919;48.274;12.292;2023-11-21T02:22:57;5.40;99.90
1800;DHT22;919;48.274;12.292;2023-11-21T02:25:25;5.40;99.90
1800;DHT22;919;48.274;12.292;2023-11-21T02:27:53;5.40;99.90
1800;DHT22;919;48.274;12.292;2023-11-21T02:30:20;5.40;99.90
1800;DHT22;919;48.274;12.292;2023-11-21T02:32:47;5.40;99.90
1800;DHT22;919;48.274;12.292;2023-11-21T02:35:14;5.40;99.90
1800;DHT22;919;48.274;12.292;2023-11-21T02:37:41;5.40;99.90
1800;DHT22;919;48.274;12.292;2023-11-21T02:40:11;5.40;99.90
1800;DHT22;919;48.274;12.292;2023-11-21T02:42:39;5.50;99.90
1800;DHT22;919;48.274;12.292;2023-11-21T02:45:07;5.40;99.90
1800;DHT22;919;48.274;12.292;2023-11-21T02:47:34;5.40;99.90
1800;DHT22;919;48.274;12.292;2023-11-21T02:50:01;5.40;99.90
1800;DHT22;919;48.274;12.292;2023-11-21T02:52:27;5.30;99.90
1800;DHT22;919;48.274;12.292;2023-11-21T02:54:54;5.30;99.90
1800;DHT22;919;48.274;12.292;2023-11-21T02:57:22;5.30;99.90
1800;DHT22;919;48.274;12.292;2023-11-21T02:59:49;5.30;99.90
1800;DHT22;919;48.274;12.292;2023-11-21T03:02:16;5.40;99.90
1800;DHT22;919;48.274;12.292;2023-11-21T03:04:43;5.40;99.90
1800;DHT22;919;48.274;12.292;2023-11-21T03:07:10;5.50;99.90
1800;DHT22;919;48.274;12.292;2023-11-21T03:09:36;5.50;99.90
1800;DHT22;919;48.274;12.292;2023-11-21T03:12:04;5.40;99.90
1800;DHT22;919;48.274;12.292;2023-11-21T03:14:32;5.40;99.90
1800;DHT22;919;48.274;12.292;2023-11-21T03:16:59;5.50;99.90
1800;DHT22;919;48.274;12.292;2023-11-21T03:19:25;5.50;99.90
1800;DHT22;919;48.274;12.292;2023-11-21T03:21:52;5.50;99.90
1800;DHT22;919;48.274;12.292;2023-11-21T03:24:19;5.60;99.90
1800;DHT22;919;48.274;12.292;2023-11-21T03:26:48;5.60;99.90
1800;DHT22;919;48.274;12.292;2023-11-21T03:29:15;5.60;99.90
1800;DHT22;919;48.274;12.292;2023-11-21T03:31:43;5.70;99.90
1800;DHT22;919;48.274;12.292;2023-11-21T03:34:15;5.80;99.90
1800;DHT22;919;48.274;12.292;2023-11-21T03:36:42;5.80;99.90
1800;DHT22;919;48.274;12.292;2023-11-21T03:39:08;6.00;99.90
1800;DHT22;919;48.274;12.292;2023-11-21T03:41:35;6.20;99.90
1800;DHT22;919;48.274;12.292;2023-11-21T03:44:02;6.30;99.90
1800;DHT22;919;48.274;12.292;2023-11-21T03:46:29;6.40;99.90
1800;DHT22;919;48.274;12.292;2023-11-21T03:48:57;6.60;99.90
1800;DHT22;919;48.274;12.292;2023-11-21T03:51:23;6.70;99.90
1800;DHT22;919;48.274;12.292;2023-11-21T03:53:50;6.60;99.90
1800;DHT22;919;48.274;12.292;2023-11-21T03:56:17;6.70;99.90
1800;DHT22;919;48.274;12.292;2023-11-21T03:58:43;6.70;99.90
1800;DHT22;919;48.274;12.292;2023-11-21T04:01:10;6.80;99.90
1800;DHT22;919;48.274;12.292;2023-11-21T04:03:37;6.80;99.90
1800;DHT22;919;48.274;12.292;2023-11-21T04:06:07;6.80;99.90
1800;DHT22;919;48.274;12.292;2023-11-21T04:08:34;6.80;99.90
1800;DHT22;919;48.274;12.292;2023-11-21T04:11:01;6.80;99.90
1800;DHT22;919;48.274;12.292;2023-11-21T04:13:28;6.80;99.90
1800;DHT22;919;48.274;12.292;2023-11-21T04:15:55;6.80;99.90
1800;DHT22;919;48.274;12.292;2023-11-21T04:18:22;6.70;99.90
1800;DHT22;919;48.274;12.292;2023-11-21T04:20:49;6.70;99.90
1800;DHT22;919;48.274;12.292;2023-11-21T04:23:17;6.70;99.90
1800;DHT22;919;48.274;12.292;2023-11-21T04:25:44;6.70;99.90
1800;DHT22;919;48.274;12.292;2023-11-21T04:28:11;6.60;99.90
1800;DHT22;919;48.274;12.292;2023-11-21T04:30:38;6.70;99.90
1800;DHT22;919;48.274;12.292;2023-11-21T04:33:06;6.60;99.90
1800;DHT22;919;48.274;12.292;2023-11-21T04:35:33;6.60;99.90
1800;DHT22;919;48.274;12.292;2023-11-21T04:37:59;6.60;99.90
1800;DHT22;919;48.274;12.292;2023-11-21T04:40:28;6.50;99.90
1800;DHT22;919;48.274;12.292;2023-11-21T04:42:54;6.50;99.90
1800;DHT22;919;48.274;12.292;2023-11-21T04:45:22;6.40;99.90
1800;DHT22;919;48.274;12.292;2023-11-21T04:47:49;6.40;99.90
1800;DHT22;919;48.274;12.292;2023-11-21T04:50:16;6.40;99.90
1800;DHT22;919;48.274;12.292;2023-11-21T04:52:43;6.40;99.90
1800;DHT22;919;48.274;12.292;2023-11-21T04:55:10;6.30;99.90
1800;DHT22;919;48.274;12.292;2023-11-21T04:57:38;6.20;99.90
1800;DHT22;919;48.274;12.292;2023-11-21T05:00:09;6.10;99.90
1800;DHT22;919;48.274;12.292;2023-11-21T05:02:36;6.10;99.90
1800;DHT22;919;48.274;12.292;2023-11-21T05:05:04;6.00;99.90
1800;DHT22;919;48.274;12.292;2023-11-21T05:07:31;5.90;99.90
1800;DHT22;919;48.274;12.292;2023-11-21T05:09:58;5.90;99.90
1800;DHT22;919;48.274;12.292;2023-11-21T05:12:25;5.80;99.90
1800;DHT22;919;48.274;12.292;2023-11-21T05:14:53;5.80;99.90
1800;DHT22;919;48.274;12.292;2023-11-21T05:17:20;5.70;99.90
1800;DHT22;919;48.274;12.292;2023-11-21T05:19:47;5.60;99.90
1800;DHT22;919;48.274;12.292;2023-11-21T05:22:14;5.60;99.90
1800;DHT22;919;48.274;12.292;2023-11-21T05:24:41;5.50;99.90
1800;DHT22;919;48.274;12.292;2023-11-21T05:27:07;5.50;99.90
1800;DHT22;919;48.274;12.292;2023-11-21T05:29:35;5.40;99.90
1800;DHT22;919;48.274;12.292;2023-11-21T05:32:04;5.40;99.90
1800;DHT22;919;48.274;12.292;2023-11-21T05:34:31;5.30;99.90
1800;DHT22;919;48.274;12.292;2023-11-21T05:36:58;5.40;99.90
1800;DHT22;919;48.274;12.292;2023-11-21T05:39:24;5.20;99.90
1800;DHT22;919;48.274;12.292;2023-11-21T05:41:53;5.10;99.90
1800;DHT22;919;48.274;12.292;2023-11-21T05:44:20;5.00;99.90
1800;DHT22;919;48.274;12.292;2023-11-21T05:46:49;5.00;99.90
1800;DHT22;919;48.274;12.292;2023-11-21T05:49:17;5.00;99.90
1800;DHT22;919;48.274;12.292;2023-11-21T05:51:47;5.10;99.90
1800;DHT22;919;48.274;12.292;2023-11-21T05:54:14;5.20;99.90
1800;DHT22;919;48.274;12.292;2023-11-21T05:56:40;5.20;99.90
1800;DHT22;919;48.274;12.292;2023-11-21T05:59:07;5.30;99.90
1800;DHT22;919;48.274;12.292;2023-11-21T06:01:34;5.20;99.90
1800;DHT22;919;48.274;12.292;2023-11-21T06:04:04;5.20;99.90
1800;DHT22;919;48.274;12.292;2023-11-21T06:06:32;5.30;99.90
1800;DHT22;919;48.274;12.292;2023-11-21T06:08:58;5.30;99.90
1800;DHT22;919;48.274;12.292;2023-11-21T06:11:24;5.30;99.90
1800;DHT22;919;48.274;12.292;2023-11-21T06:13:51;5.30;99.90
1800;DHT22;919;48.274;12.292;2023-11-21T06:16:18;5.40;99.90
1800;DHT22;919;48.274;12.292;2023-11-21T06:18:45;5.40;99.90
1800;DHT22;919;48.274;12.292;2023-11-21T06:21:12;5.40;99.90
1800;DHT22;919;48.274;12.292;2023-11-21T06:23:40;5.40;99.90
1800;DHT22;919;48.274;12.292;2023-11-21T06:26:07;5.40;99.90
1800;DHT22;919;48.274;12.292;2023-11-21T06:28:34;5.40;99.90
1800;DHT22;919;48.274;12.292;2023-11-21T06:31:01;5.40;99.90
1800;DHT22;919;48.274;12.292;2023-11-21T06:33:30;5.50;99.90
1800;DHT22;919;48.274;12.292;2023-11-21T06:35:57;5.50;99.90
1800;DHT22;919;48.274;12.292;2023-11-21T06:38:24;5.50;99.90
1800;DHT22;919;48.274;12.292;2023-11-21T06:40:56;5.50;99.90
1800;DHT22;919;48.274;12.292;2023-11-21T06:43:23;5.50;99.90
1800;DHT22;919;48.274;12.292;2023-11-21T06:45:50;5.50;99.90
1800;DHT22;919;48.274;12.292;2023-11-21T06:48:17;5.50;99.90
1800;DHT22;919;48.274;12.292;2023-11-21T06:50:43;5.50;99.90
1800;DHT22;919;48.274;12.292;2023-11-21T06:53:12;5.50;99.90
1800;DHT22;919;48.274;12.292;2023-11-21T06:55:39;5.50;99.90
1800;DHT22;919;48.274;12.292;2023-11-21T06:58:07;5.60;99.90
1800;DHT22;919;48.274;12.292;2023-11-21T07:00:34;5.70;99.90
1800;DHT22;919;48.274;12.292;2023-11-21T07:03:00;5.70;99.90
1800;DHT22;919;48.274;12.292;2023-11-21T07:05:27;5.70;99.90
1800;DHT22;919;48.274;12.292;2023-11-21T07:07:54;5.70;99.90
1800;DHT22;919;48.274;12.292;2023-11-21T07:10:20;5.70;99.90
1800;DHT22;919;48.274;12.292;2023-11-21T07:12:47;5.80;99.90
1800;DHT22;919;48.274;12.292;2023-11-21T07:15:15;5.80;99.90
1800;DHT22;919;48.274;12.292;2023-11-21T07:17:42;5.80;99.90
1800;DHT22;919;48.274;12.292;2023-11-21T07:20:10;5.90;99.90
1800;DHT22;919;48.274;12.292;2023-11-21T07:22:37;5.90;99.90
1800;DHT22;919;48.274;12.292;2023-11-21T07:25:05;5.90;99.90
1800;DHT22;919;48.274;12.292;2023-11-21T07:27:32;6.00;99.90
1800;DHT22;919;48.274;12.292;2023-11-21T07:30:01;6.00;99.90
1800;DHT22;919;48.274;12.292;2023-11-21T07:32:31;6.00;99.90
1800;DHT22;919;48.274;12.292;2023-11-21T07:34:58;6.00;99.90
1800;DHT22;919;48.274;12.292;2023-11-21T07:37:25;6.10;99.90
1800;DHT22;919;48.274;12.292;2023-11-21T07:39:54;6.10;99.90
1800;DHT22;919;48.274;12.292;2023-11-21T07:42:21;6.20;99.90
1800;DHT22;919;48.274;12.292;2023-11-21T07:44:48;6.30;99.90
1800;DHT22;919;48.274;12.292;2023-11-21T07:47:15;6.30;99.90
1800;DHT22;919;48.274;12.292;2023-11-21T07:49:43;6.40;99.90
1800;DHT22;919;48.274;12.292;2023-11-21T07:52:13;6.50;99.90
1800;DHT22;919;48.274;12.292;2023-11-21T07:54:41;6.50;99.90
1800;DHT22;919;48.274;12.292;2023-11-21T07:57:08;6.60;99.90
1800;DHT22;919;48.274;12.292;2023-11-21T07:59:38;6.70;99.90
1800;DHT22;919;48.274;12.292;2023-11-21T08:02:06;6.90;99.90
1800;DHT22;919;48.274;12.292;2023-11-21T08:04:32;7.00;99.90
1800;DHT22;919;48.274;12.292;2023-11-21T08:07:01;7.00;99.90
1800;DHT22;919;48.274;12.292;2023-11-21T08:09:29;7.00;99.90
1800;DHT22;919;48.274;12.292;2023-11-21T08:11:56;7.10;99.90
1800;DHT22;919;48.274;12.292;2023-11-21T08:14:23;7.10;99.90
1800;DHT22;919;48.274;12.292;2023-11-21T08:16:51;7.10;99.90
1800;DHT22;919;48.274;12.292;2023-11-21T08:19:17;7.20;99.90
1800;DHT22;919;48.274;12.292;2023-11-21T08:21:44;7.20;99.90
1800;DHT22;919;48.274;12.292;2023-11-21T08:24:12;7.20;99.90
1800;DHT22;919;48.274;12.292;2023-11-21T08:26:39;7.20;99.90
1800;DHT22;919;48.274;12.292;2023-11-21T08:29:06;7.30;99.90
1800;DHT22;919;48.274;12.292;2023-11-21T08:31:34;7.40;99.90
1800;DHT22;919;48.274;12.292;2023-11-21T08:34:01;7.50;99.90
1800;DHT22;919;48.274;12.292;2023-11-21T08:36:28;7.70;99.90
1800;DHT22;919;48.274;12.292;2023-11-21T08:38:57;7.80;99.90
1800;DHT22;919;48.274;12.292;2023-11-21T08:41:25;7.90;99.90
1800;DHT22;919;48.274;12.292;2023-11-21T08:43:54;8.00;99.90
1800;DHT22;919;48.274;12.292;2023-11-21T08:46:26;8.10;99.90
1800;DHT22;919;48.274;12.292;2023-11-21T08:49:35;8.20;99.90
1800;DHT22;919;48.274;12.292;2023-11-21T08:52:27;8.30;99.90
1800;DHT22;919;48.274;12.292;2023-11-21T08:55:39;8.20;99.90
1800;DHT22;919;48.274;12.292;2023-11-21T09:02:29;8.20;99.90
1800;DHT22;919;48.274;12.292;2023-11-21T09:05:09;8.20;99.90
1800;DHT22;919;48.274;12.292;2023-11-21T09:08:35;8.30;99.90
1800;DHT22;919;48.274;12.292;2023-11-21T09:11:14;8.40;99.90
1800;DHT22;919;48.274;12.292;2023-11-21T09:16:17;8.30;99.90
1800;DHT22;919;48.274;12.292;2023-11-21T09:18:45;8.40;99.90
1800;DHT22;919;48.274;12.292;2023-11-21T09:21:12;8.40;99.90
1800;DHT22;919;48.274;12.292;2023-11-21T09:23:38;8.40;99.90
1800;DHT22;919;48.274;12.292;2023-11-21T09:26:05;8.40;99.90
1800;DHT22;919;48.274;12.292;2023-11-21T09:28:32;8.40;99.90
1800;DHT22;919;48.274;12.292;2023-11-21T09:30:59;8.40;99.90
1800;DHT22;919;48.274;12.292;2023-11-21T09:33:28;8.30;99.90
1800;DHT22;919;48.274;12.292;2023-11-21T09:35:57;8.30;99.90
1800;DHT22;919;48.274;12.292;2023-11-21T09:38:24;8.30;99.90
1800;DHT22;919;48.274;12.292;2023-11-21T09:40:51;8.30;99.90
1800;DHT22;919;48.274;12.292;2023-11-21T09:43:20;8.40;99.90
1800;DHT22;919;48.274;12.292;2023-11-21T09:45:51;8.40;99.90
1800;DHT22;919;48.274;12.292;2023-11-21T09:48:20;8.40;99.90
1800;DHT22;919;48.274;12.292;2023-11-21T09:50:48;8.40;99.90
1800;DHT22;919;48.274;12.292;2023-11-21T09:53:19;8.40;99.90
1800;DHT22;919;48.274;12.292;2023-11-21T09:55:48;8.40;99.90
1800;DHT22;919;48.274;12.292;2023-11-21T09:58:16;8.40;99.90
1800;DHT22;919;48.274;12.292;2023-11-21T10:00:46;8.40;99.90
1800;DHT22;919;48.274;12.292;2023-11-21T10:03:13;8.30;99.90
1800;DHT22;919;48.274;12.292;2023-11-21T10:05:43;8.30;99.90
1800;DHT22;919;48.274;12.292;2023-11-21T10:08:12;8.30;99.90
1800;DHT22;919;48.274;12.292;2023-11-21T10:10:43;8.30;99.90
1800;DHT22;919;48.274;12.292;2023-11-21T10:13:11;8.30;99.90
1800;DHT22;919;48.274;12.292;2023-11-21T10:15:42;8.30;99.90
1800;DHT22;919;48.274;12.292;2023-11-21T10:18:14;8.40;99.90
1800;DHT22;919;48.274;12.292;2023-11-21T10:20:41;8.40;99.90
1800;DHT22;919;48.274;12.292;2023-11-21T10:23:10;8.40;99.90
1800;DHT22;919;48.274;12.292;2023-11-21T10:25:39;8.50;99.90
1800;DHT22;919;48.274;12.292;2023-11-21T10:28:07;8.60;99.90
1800;DHT22;919;48.274;12.292;2023-11-21T10:30:35;8.60;99.90
1800;DHT22;919;48.274;12.292;2023-11-21T10:33:02;8.70;99.90
1800;DHT22;919;48.274;12.292;2023-11-21T10:38:12;8.80;99.90
1800;DHT22;919;48.274;12.292;2023-11-21T10:40:41;8.80;99.90
1800;DHT22;919;48.274;12.292;2023-11-21T10:43:08;8.90;99.90
1800;DHT22;919;48.274;12.292;2023-11-21T10:45:36;8.90;99.90
1800;DHT22;919;48.274;12.292;2023-11-21T10:48:05;9.00;99.90
1800;DHT22;919;48.274;12.292;2023-11-21T10:50:34;9.00;99.90
1800;DHT22;919;48.274;12.292;2023-11-21T10:53:02;9.10;99.90
1800;DHT22;919;48.274;12.292;2023-11-21T10:55:33;9.00;99.90
1800;DHT22;919;48.274;12.292;2023-11-21T10:58:02;9.00;99.90
1800;DHT22;919;48.274;12.292;2023-11-21T11:00:31;9.00;99.90
1800;DHT22;919;48.274;12.292;2023-11-21T11:02:58;9.00;99.90
1800;DHT22;919;48.274;12.292;2023-11-21T11:05:28;9.10;99.90
1800;DHT22;919;48.274;12.292;2023-11-21T11:07:58;9.10;99.90
1800;DHT22;919;48.274;12.292;2023-11-21T11:10:27;9.20;99.90
1800;DHT22;919;48.274;12.292;2023-11-21T11:12:55;9.30;99.90
1800;DHT22;919;48.274;12.292;2023-11-21T11:15:24;9.40;99.90
1800;DHT22;919;48.274;12.292;2023-11-21T11:17:52;9.40;99.90
1800;DHT22;919;48.274;12.292;2023-11-21T11:20:23;9.40;99.90
1800;DHT22;919;48.274;12.292;2023-11-21T11:23:04;9.40;99.90
1800;DHT22;919;48.274;12.292;2023-11-21T11:25:47;9.30;99.90
1800;DHT22;919;48.274;12.292;2023-11-21T11:28:21;9.20;99.90
1800;DHT22;919;48.274;12.292;2023-11-21T11:30:59;9.10;99.90
1800;DHT22;919;48.274;12.292;2023-11-21T11:33:34;9.00;99.90
1800;DHT22;919;48.274;12.292;2023-11-21T11:36:06;9.00;99.90
1800;DHT22;919;48.274;12.292;2023-11-21T11:38:36;9.00;99.90
1800;DHT22;919;48.274;12.292;2023-11-21T11:41:04;8.90;99.90
1800;DHT22;919;48.274;12.292;2023-11-21T11:43:32;8.90;99.90
1800;DHT22;919;48.274;12.292;2023-11-21T11:46:10;8.80;99.90
1800;DHT22;919;48.274;12.292;2023-11-21T11:48:39;8.70;99.90
1800;DHT22;919;48.274;12.292;2023-11-21T11:51:09;8.70;99.90
1800;DHT22;919;48.274;12.292;2023-11-21T11:53:39;8.70;99.90
1800;DHT22;919;48.274;12.292;2023-11-21T11:56:23;8.60;99.90
1800;DHT22;919;48.274;12.292;2023-11-21T11:58:53;8.50;99.90
1800;DHT22;919;48.274;12.292;2023-11-21T12:01:23;8.40;99.90
1800;DHT22;919;48.274;12.292;2023-11-21T12:04:25;8.40;99.90
1800;DHT22;919;48.274;12.292;2023-11-21T12:06:59;8.40;99.90
1800;DHT22;919;48.274;12.292;2023-11-21T12:09:28;8.50;99.90
1800;DHT22;919;48.274;12.292;2023-11-21T12:11:57;8.60;99.90
1800;DHT22;919;48.274;12.292;2023-11-21T12:14:24;8.70;99.90
1800;DHT22;919;48.274;12.292;2023-11-21T12:16:52;8.90;99.90
1800;DHT22;919;48.274;12.292;2023-11-21T12:19:20;9.00;99.90
1800;DHT22;919;48.274;12.292;2023-11-21T12:21:48;9.20;99.90
1800;DHT22;919;48.274;12.292;2023-11-21T12:24:15;9.30;99.90
1800;DHT22;919;48.274;12.292;2023-11-21T12:26:43;9.40;99.90
1800;DHT22;919;48.274;12.292;2023-11-21T12:29:10;9.50;99.90
1800;DHT22;919;48.274;12.292;2023-11-21T12:31:37;9.50;99.90
1800;DHT22;919;48.274;12.292;2023-11-21T12:34:05;9.50;99.90
1800;DHT22;919;48.274;12.292;2023-11-21T12:36:32;9.50;99.90
1800;DHT22;919;48.274;12.292;2023-11-21T12:39:00;9.40;99.90
1800;DHT22;919;48.274;12.292;2023-11-21T12:41:28;9.40;99.90
1800;DHT22;919;48.274;12.292;2023-11-21T12:43:56;9.30;99.90
1800;DHT22;919;48.274;12.292;2023-11-21T12:46:23;9.30;99.90
1800;DHT22;919;48.274;12.292;2023-11-21T12:48:51;9.20;99.90
1800;DHT22;919;48.274;12.292;2023-11-21T12:51:21;9.30;99.90
1800;DHT22;919;48.274;12.292;2023-11-21T12:53:48;9.30;99.90
1800;DHT22;919;48.274;12.292;2023-11-21T12:56:15;9.30;99.90
1800;DHT22;919;48.274;12.292;2023-11-21T12:58:45;9.30;99.90
1800;DHT22;919;48.274;12.292;2023-11-21T13:01:12;9.30;99.90
1800;DHT22;919;48.274;12.292;2023-11-21T13:03:45;9.30;99.90
1800;DHT22;919;48.274;12.292;2023-11-21T13:06:14;9.30;99.90
1800;DHT22;919;48.274;12.292;2023-11-21T13:08:44;9.30;99.90
1800;DHT22;919;48.274;12.292;2023-11-21T13:11:11;9.30;99.90
1800;DHT22;919;48.274;12.292;2023-11-21T13:13:41;9.30;99.90
1800;DHT22;919;48.274;12.292;2023-11-21T13:16:09;9.30;99.90
1800;DHT22;919;48.274;12.292;2023-11-21T13:18:36;9.30;99.90
1800;DHT22;919;48.274;12.292;2023-11-21T13:21:06;9.30;99.90
1800;DHT22;919;48.274;12.292;2023-11-21T13:23:37;9.40;99.90
1800;DHT22;919;48.274;12.292;2023-11-21T13:26:05;9.40;99.90
1800;DHT22;919;48.274;12.292;2023-11-21T13:28:32;9.50;99.90
1800;DHT22;919;48.274;12.292;2023-11-21T13:31:00;9.50;99.90
1800;DHT22;919;48.274;12.292;2023-11-21T13:33:34;9.60;99.90
1800;DHT22;919;48.274;12.292;2023-11-21T13:36:04;9.70;99.90
1800;DHT22;919;48.274;12.292;2023-11-21T13:38:33;9.70;99.90
1800;DHT22;919;48.274;12.292;2023-11-21T13:41:01;9.70;99.90
1800;DHT22;919;48.274;12.292;2023-11-21T13:43:36;9.60;99.90
1800;DHT22;919;48.274;12.292;2023-11-21T13:46:05;9.50;99.90
1800;DHT22;919;48.274;12.292;2023-11-21T13:48:38;9.30;99.90
1800;DHT22;919;48.274;12.292;2023-11-21T13:51:08;9.20;99.90
1800;DHT22;919;48.274;12.292;2023-11-21T13:53:42;9.10;99.90
1800;DHT22;919;48.274;12.292;2023-11-21T13:56:10;9.00;99.90
1800;DHT22;919;48.274;12.292;2023-11-21T13:58:39;8.90;99.90
1800;DHT22;919;48.274;12.292;2023-11-21T14:01:12;8.90;99.90
1800;DHT22;919;48.274;12.292;2023-11-21T14:03:57;8.80;99.90
1800;DHT22;919;48.274;12.292;2023-11-21T14:06:33;8.70;99.90
1800;DHT22;919;48.274;12.292;2023-11-21T14:09:07;8.60;99.90
1800;DHT22;919;48.274;12.292;2023-11-21T14:11:34;8.60;99.90
1800;DHT22;919;48.274;12.292;2023-11-21T14:14:05;8.50;99.90
1800;DHT22;919;48.274;12.292;2023-11-21T14:16:32;8.60;99.90
1800;DHT22;919;48.274;12.292;2023-11-21T14:18:59;8.50;99.90
1800;DHT22;919;48.274;12.292;2023-11-21T14:21:51;8.50;99.90
1800;DHT22;919;48.274;12.292;2023-11-21T14:24:54;8.60;99.90
1800;DHT22;919;48.274;12.292;2023-11-21T14:28:01;8.50;99.90
1800;DHT22;919;48.274;12.292;2023-11-21T14:30:32;8.60;99.90
1800;DHT22;919;48.274;12.292;2023-11-21T14:33:01;8.50;99.90
1800;DHT22;919;48.274;12.292;2023-11-21T14:35:28;8.50;99.90
1800;DHT22;919;48.274;12.292;2023-11-21T14:37:58;8.60;99.90
1800;DHT22;919;48.274;12.292;2023-11-21T14:40:26;8.50;99.90
1800;DHT22;919;48.274;12.292;2023-11-21T14:43:09;8.50;99.90
1800;DHT22;919;48.274;12.292;2023-11-21T14:49:28;8.50;99.90
1800;DHT22;919;48.274;12.292;2023-11-21T14:52:05;8.40;99.90
1800;DHT22;919;48.274;12.292;2023-11-21T14:54:43;8.40;99.90
1800;DHT22;919;48.274;12.292;2023-11-21T14:57:12;8.40;99.90
1800;DHT22;919;48.274;12.292;2023-11-21T14:59:46;8.30;99.90
1800;DHT22;919;48.274;12.292;2023-11-21T15:02:15;8.30;99.90
1800;DHT22;919;48.274;12.292;2023-11-21T15:04:44;8.30;99.90
1800;DHT22;919;48.274;12.292;2023-11-21T15:07:10;8.20;99.90
1800;DHT22;919;48.274;12.292;2023-11-21T15:09:37;8.20;99.90
1800;DHT22;919;48.274;12.292;2023-11-21T15:12:08;8.20;99.90
1800;DHT22;919;48.274;12.292;2023-11-21T15:14:43;8.10;99.90
1800;DHT22;919;48.274;12.292;2023-11-21T15:17:11;8.10;99.90
1800;DHT22;919;48.274;12.292;2023-11-21T15:19:42;8.10;99.90
1800;DHT22;919;48.274;12.292;2023-11-21T15:22:11;8.10;99.90
1800;DHT22;919;48.274;12.292;2023-11-21T15:24:40;8.00;99.90
1800;DHT22;919;48.274;12.292;2023-11-21T15:27:10;8.00;99.90
1800;DHT22;919;48.274;12.292;2023-11-21T15:29:37;7.90;99.90
1800;DHT22;919;48.274;12.292;2023-11-21T15:32:05;7.90;99.90
1800;DHT22;919;48.274;12.292;2023-11-21T15:34:32;7.90;99.90
1800;DHT22;919;48.274;12.292;2023-11-21T15:37:01;7.90;99.90
1800;DHT22;919;48.274;12.292;2023-11-21T15:39:28;7.80;99.90
1800;DHT22;919;48.274;12.292;2023-11-21T15:41:56;7.80;99.90
1800;DHT22;919;48.274;12.292;2023-11-21T15:44:55;7.80;99.90
1800;DHT22;919;48.274;12.292;2023-11-21T15:48:19;7.80;99.90
1800;DHT22;919;48.274;12.292;2023-11-21T15:51:03;7.80;99.90
1800;DHT22;919;48.274;12.292;2023-11-21T15:53:31;7.80;99.90
1800;DHT22;919;48.274;12.292;2023-11-21T15:55:58;7.80;99.90
1800;DHT22;919;48.274;12.292;2023-11-21T15:58:25;7.80;99.90
1800;DHT22;919;48.274;12.292;2023-11-21T16:00:52;7.80;99.90
1800;DHT22;919;48.274;12.292;2023-11-21T16:03:19;7.80;99.90
1800;DHT22;919;48.274;12.292;2023-11-21T16:05:48;7.80;99.90
1800;DHT22;919;48.274;12.292;2023-11-21T16:08:15;7.80;99.90
1800;DHT22;919;48.274;12.292;2023-11-21T16:10:44;7.80;99.90
1800;DHT22;919;48.274;12.292;2023-11-21T16:13:11;7.70;99.90
1800;DHT22;919;48.274;12.292;2023-11-21T16:15:39;7.70;99.90
1800;DHT22;919;48.274;12.292;2023-11-21T16:18:06;7.70;99.90
1800;DHT22;919;48.274;12.292;2023-11-21T16:20:33;7.70;99.90
1800;DHT22;919;48.274;12.292;2023-11-21T16:23:02;7.70;99.90
1800;DHT22;919;48.274;12.292;2023-11-21T16:25:29;7.70;99.90
1800;DHT22;919;48.274;12.292;2023-11-21T16:27:57;7.70;99.90
1800;DHT22;919;48.274;12.292;2023-11-21T16:30:29;7.70;99.90
1800;DHT22;919;48.274;12.292;2023-11-21T16:32:59;7.70;99.90
1800;DHT22;919;48.274;12.292;2023-11-21T16:35:26;7.70;99.90
1800;DHT22;919;48.274;12.292;2023-11-21T16:37:54;7.70;99.90
1800;DHT22;919;48.274;12.292;2023-11-21T16:40:22;7.70;99.90
1800;DHT22;919;48.274;12.292;2023-11-21T16:42:49;7.70;99.90